sensor_id;sensor_type;location;lat;lon;timestamp;temperature;humidity
3037;DHT22;1528;52.550;13.408;2023-04-03T00:01:43;3.70;24.80
3037;DHT22;1528;52.550;13.408;2023-04-03T00:04:29;3.60;25.00
3037;DHT22;1528;52.550;13.408;2023-04-03T00:07:14;3.70;24.60
3037;DHT22;1528;52.550;13.408;2023-04-03T00:10:00;3.70;24.50
3037;DHT22;1528;52.550;13.408;2023-04-03T00:12:47;3.80;24.40
3037;DHT22;1528;52.550;13.408;2023-04-03T00:15:33;3.60;24.80
3037;DHT22;1528;52.550;13.408;2023-04-03T00:18:19;3.60;25.00
3037;DHT22;1528;52.550;13.408;2023-04-03T00:21:05;3.80;24.50
3037;DHT22;1528;52.550;13.408;2023-04-03T00:23:51;3.70;24.60
3037;DHT22;1528;52.550;13.408;2023-04-03T00:26:36;3.50;24.80
3037;DHT22;1528;52.550;13.408;2023-04-03T00:29:23;3.50;24.70
3037;DHT22;1528;52.550;13.408;2023-04-03T00:32:09;3.60;24.80
3037;DHT22;1528;52.550;13.408;2023-04-03T00:34:55;3.60;24.90
3037;DHT22;1528;52.550;13.408;2023-04-03T00:37:41;3.70;24.80
3037;DHT22;1528;52.550;13.408;2023-04-03T00:40:27;3.60;24.80
3037;DHT22;1528;52.550;13.408;2023-04-03T00:43:15;3.70;24.60
3037;DHT22;1528;52.550;13.408;2023-04-03T00:46:02;3.60;24.50
3037;DHT22;1528;52.550;13.408;2023-04-03T00:48:49;3.70;24.50
3037;DHT22;1528;52.550;13.408;2023-04-03T00:51:35;3.50;25.50
3037;DHT22;1528;52.550;13.408;2023-04-03T00:54:20;3.60;24.90
3037;DHT22;1528;52.550;13.408;2023-04-03T00:57:07;3.60;24.80
3037;DHT22;1528;52.550;13.408;2023-04-03T00:59:57;3.60;24.90
3037;DHT22;1528;52.550;13.408;2023-04-03T01:02:46;3.50;25.20
3037;DHT22;1528;52.550;13.408;2023-04-03T01:05:32;3.50;25.20
3037;DHT22;1528;52.550;13.408;2023-04-03T01:08:18;3.30;25.20
3037;DHT22;1528;52.550;13.408;2023-04-03T01:11:03;3.40;25.50
3037;DHT22;1528;52.550;13.408;2023-04-03T01:13:49;3.50;25.10
3037;DHT22;1528;52.550;13.408;2023-04-03T01:16:34;3.60;24.70
3037;DHT22;1528;52.550;13.408;2023-04-03T01:19:22;3.50;25.00
3037;DHT22;1528;52.550;13.408;2023-04-03T01:22:16;3.50;24.90
3037;DHT22;1528;52.550;13.408;2023-04-03T01:25:04;3.50;25.20
3037;DHT22;1528;52.550;13.408;2023-04-03T01:27:50;3.40;24.90
3037;DHT22;1528;52.550;13.408;2023-04-03T01:30:41;3.40;25.00
3037;DHT22;1528;52.550;13.408;2023-04-03T01:33:29;3.50;25.10
3037;DHT22;1528;52.550;13.408;2023-04-03T01:36:17;3.60;24.80
3037;DHT22;1528;52.550;13.408;2023-04-03T01:39:03;3.50;25.00
3037;DHT22;1528;52.550;13.408;2023-04-03T01:41:49;3.50;25.10
3037;DHT22;1528;52.550;13.408;2023-04-03T01:44:34;3.40;25.60
3037;DHT22;1528;52.550;13.408;2023-04-03T01:47:20;3.40;25.20
3037;DHT22;1528;52.550;13.408;2023-04-03T01:50:08;3.40;25.30
3037;DHT22;1528;52.550;13.408;2023-04-03T01:52:53;3.50;25.40
3037;DHT22;1528;52.550;13.408;2023-04-03T01:55:39;3.50;25.00
3037;DHT22;1528;52.550;13.408;2023-04-03T01:58:24;3.40;25.10
3037;DHT22;1528;52.550;13.408;2023-04-03T02:01:10;3.40;25.10
3037;DHT22;1528;52.550;13.408;2023-04-03T02:03:55;3.40;25.20
3037;DHT22;1528;52.550;13.408;2023-04-03T02:06:43;3.30;26.10
3037;DHT22;1528;52.550;13.408;2023-04-03T02:09:28;3.60;25.70
3037;DHT22;1528;52.550;13.408;2023-04-03T02:12:14;3.30;25.80
3037;DHT22;1528;52.550;13.408;2023-04-03T02:15:00;3.10;25.90
3037;DHT22;1528;52.550;13.408;2023-04-03T02:17:45;3.20;25.90
3037;DHT22;1528;52.550;13.408;2023-04-03T02:20:31;3.30;25.70
3037;DHT22;1528;52.550;13.408;2023-04-03T02:23:18;3.30;25.70
3037;DHT22;1528;52.550;13.408;2023-04-03T02:26:06;3.30;25.40
3037;DHT22;1528;52.550;13.408;2023-04-03T02:28:51;3.30;25.40
3037;DHT22;1528;52.550;13.408;2023-04-03T02:31:37;3.30;25.70
3037;DHT22;1528;52.550;13.408;2023-04-03T02:34:23;3.30;25.60
3037;DHT22;1528;52.550;13.408;2023-04-03T02:37:08;3.30;25.60
3037;DHT22;1528;52.550;13.408;2023-04-03T02:39:55;3.30;25.60
3037;DHT22;1528;52.550;13.408;2023-04-03T02:42:41;3.30;25.30
3037;DHT22;1528;52.550;13.408;2023-04-03T02:45:27;3.30;25.30
3037;DHT22;1528;52.550;13.408;2023-04-03T02:48:12;3.20;25.80
3037;DHT22;1528;52.550;13.408;2023-04-03T02:50:58;3.00;25.70
3037;DHT22;1528;52.550;13.408;2023-04-03T02:53:44;3.20;26.30
3037;DHT22;1528;52.550;13.408;2023-04-03T02:56:31;3.10;25.80
3037;DHT22;1528;52.550;13.408;2023-04-03T02:59:17;3.00;26.30
3037;DHT22;1528;52.550;13.408;2023-04-03T03:02:03;2.90;25.90
3037;DHT22;1528;52.550;13.408;2023-04-03T03:04:48;3.00;26.40
3037;DHT22;1528;52.550;13.408;2023-04-03T03:07:34;3.10;26.20
3037;DHT22;1528;52.550;13.408;2023-04-03T03:10:19;2.90;26.00
3037;DHT22;1528;52.550;13.408;2023-04-03T03:13:06;3.10;26.00
3037;DHT22;1528;52.550;13.408;2023-04-03T03:15:52;3.10;26.00
3037;DHT22;1528;52.550;13.408;2023-04-03T03:18:37;3.20;25.80
3037;DHT22;1528;52.550;13.408;2023-04-03T03:21:23;3.20;25.80
3037;DHT22;1528;52.550;13.408;2023-04-03T03:24:09;3.20;25.90
3037;DHT22;1528;52.550;13.408;2023-04-03T03:26:56;3.10;25.60
3037;DHT22;1528;52.550;13.408;2023-04-03T03:29:43;3.10;26.10
3037;DHT22;1528;52.550;13.408;2023-04-03T03:32:28;3.10;26.00
3037;DHT22;1528;52.550;13.408;2023-04-03T03:35:14;3.10;25.80
3037;DHT22;1528;52.550;13.408;2023-04-03T03:38:00;3.10;26.00
3037;DHT22;1528;52.550;13.408;2023-04-03T03:40:47;3.10;26.20
3037;DHT22;1528;52.550;13.408;2023-04-03T03:43:32;3.00;25.90
3037;DHT22;1528;52.550;13.408;2023-04-03T03:46:19;3.10;26.10
3037;DHT22;1528;52.550;13.408;2023-04-03T03:49:05;3.00;26.00
3037;DHT22;1528;52.550;13.408;2023-04-03T03:51:50;3.00;26.20
3037;DHT22;1528;52.550;13.408;2023-04-03T03:54:36;3.00;26.00
3037;DHT22;1528;52.550;13.408;2023-04-03T03:57:22;3.00;26.10
3037;DHT22;1528;52.550;13.408;2023-04-03T04:00:08;3.10;26.30
3037;DHT22;1528;52.550;13.408;2023-04-03T04:02:55;3.00;26.00
3037;DHT22;1528;52.550;13.408;2023-04-03T04:05:41;3.00;26.40
3037;DHT22;1528;52.550;13.408;2023-04-03T04:08:26;2.80;26.60
3037;DHT22;1528;52.550;13.408;2023-04-03T04:11:12;2.80;26.40
3037;DHT22;1528;52.550;13.408;2023-04-03T04:13:58;2.80;26.70
3037;DHT22;1528;52.550;13.408;2023-04-03T04:16:44;2.80;26.70
3037;DHT22;1528;52.550;13.408;2023-04-03T04:19:31;2.80;27.20
3037;DHT22;1528;52.550;13.408;2023-04-03T04:22:17;2.90;26.80
3037;DHT22;1528;52.550;13.408;2023-04-03T04:25:03;3.00;26.80
3037;DHT22;1528;52.550;13.408;2023-04-03T04:27:48;2.90;26.70
3037;DHT22;1528;52.550;13.408;2023-04-03T04:30:34;2.90;26.80
3037;DHT22;1528;52.550;13.408;2023-04-03T04:33:20;2.80;26.90
3037;DHT22;1528;52.550;13.408;2023-04-03T04:36:07;2.80;27.40
3037;DHT22;1528;52.550;13.408;2023-04-03T04:38:53;2.80;27.10
3037;DHT22;1528;52.550;13.408;2023-04-03T04:41:38;2.90;26.90
3037;DHT22;1528;52.550;13.408;2023-04-03T04:44:24;2.80;26.80
3037;DHT22;1528;52.550;13.408;2023-04-03T04:47:10;2.90;26.90
3037;DHT22;1528;52.550;13.408;2023-04-03T04:49:55;2.80;27.10
3037;DHT22;1528;52.550;13.408;2023-04-03T04:52:42;2.80;27.50
3037;DHT22;1528;52.550;13.408;2023-04-03T04:55:28;2.80;27.00
3037;DHT22;1528;52.550;13.408;2023-04-03T04:58:13;2.80;27.40
3037;DHT22;1528;52.550;13.408;2023-04-03T05:00:59;2.80;27.40
3037;DHT22;1528;52.550;13.408;2023-04-03T05:03:45;2.90;27.40
3037;DHT22;1528;52.550;13.408;2023-04-03T05:06:31;2.90;27.60
3037;DHT22;1528;52.550;13.408;2023-04-03T05:09:20;2.90;27.40
3037;DHT22;1528;52.550;13.408;2023-04-03T05:12:06;2.90;27.50
3037;DHT22;1528;52.550;13.408;2023-04-03T05:14:52;3.00;27.50
3037;DHT22;1528;52.550;13.408;2023-04-03T05:17:37;2.90;27.40
3037;DHT22;1528;52.550;13.408;2023-04-03T05:20:23;3.00;27.20
3037;DHT22;1528;52.550;13.408;2023-04-03T05:23:09;3.00;27.00
3037;DHT22;1528;52.550;13.408;2023-04-03T05:25:56;3.00;27.00
3037;DHT22;1528;52.550;13.408;2023-04-03T05:28:42;3.00;27.00
3037;DHT22;1528;52.550;13.408;2023-04-03T05:31:28;3.00;27.20
3037;DHT22;1528;52.550;13.408;2023-04-03T05:34:14;3.00;27.30
3037;DHT22;1528;52.550;13.408;2023-04-03T05:37:00;2.90;27.50
3037;DHT22;1528;52.550;13.408;2023-04-03T05:39:47;3.10;27.50
3037;DHT22;1528;52.550;13.408;2023-04-03T05:42:34;2.80;27.40
3037;DHT22;1528;52.550;13.408;2023-04-03T05:45:20;3.00;27.30
3037;DHT22;1528;52.550;13.408;2023-04-03T05:48:05;3.00;27.30
3037;DHT22;1528;52.550;13.408;2023-04-03T05:50:51;3.10;27.20
3037;DHT22;1528;52.550;13.408;2023-04-03T05:53:36;3.10;27.20
3037;DHT22;1528;52.550;13.408;2023-04-03T05:56:22;3.20;26.90
3037;DHT22;1528;52.550;13.408;2023-04-03T05:59:09;3.20;26.90
3037;DHT22;1528;52.550;13.408;2023-04-03T06:01:55;3.20;27.00
3037;DHT22;1528;52.550;13.408;2023-04-03T06:04:40;3.00;27.50
3037;DHT22;1528;52.550;13.408;2023-04-03T06:07:26;3.10;27.40
3037;DHT22;1528;52.550;13.408;2023-04-03T06:10:12;3.30;26.80
3037;DHT22;1528;52.550;13.408;2023-04-03T06:12:58;3.20;26.90
3037;DHT22;1528;52.550;13.408;2023-04-03T06:15:45;3.20;27.00
3037;DHT22;1528;52.550;13.408;2023-04-03T06:18:30;3.30;27.00
3037;DHT22;1528;52.550;13.408;2023-04-03T06:21:16;3.40;27.00
3037;DHT22;1528;52.550;13.408;2023-04-03T06:24:03;3.50;27.20
3037;DHT22;1528;52.550;13.408;2023-04-03T06:26:48;3.60;26.40
3037;DHT22;1528;52.550;13.408;2023-04-03T06:29:35;3.70;25.80
3037;DHT22;1528;52.550;13.408;2023-04-03T06:32:22;3.60;25.80
3037;DHT22;1528;52.550;13.408;2023-04-03T06:35:08;3.50;26.00
3037;DHT22;1528;52.550;13.408;2023-04-03T06:37:54;3.50;26.60
3037;DHT22;1528;52.550;13.408;2023-04-03T06:40:40;3.60;25.70
3037;DHT22;1528;52.550;13.408;2023-04-03T06:43:26;3.80;25.60
3037;DHT22;1528;52.550;13.408;2023-04-03T06:46:15;3.90;25.10
3037;DHT22;1528;52.550;13.408;2023-04-03T06:49:03;3.90;25.30
3037;DHT22;1528;52.550;13.408;2023-04-03T06:51:49;4.00;24.50
3037;DHT22;1528;52.550;13.408;2023-04-03T06:54:35;4.10;23.90
3037;DHT22;1528;52.550;13.408;2023-04-03T06:57:20;4.20;23.90
3037;DHT22;1528;52.550;13.408;2023-04-03T07:00:07;4.10;23.60
3037;DHT22;1528;52.550;13.408;2023-04-03T07:02:54;4.10;23.30
3037;DHT22;1528;52.550;13.408;2023-04-03T07:05:42;4.20;23.50
3037;DHT22;1528;52.550;13.408;2023-04-03T07:08:29;4.20;23.10
3037;DHT22;1528;52.550;13.408;2023-04-03T07:11:15;4.50;22.40
3037;DHT22;1528;52.550;13.408;2023-04-03T07:14:01;4.50;21.50
3037;DHT22;1528;52.550;13.408;2023-04-03T07:16:46;4.60;21.20
3037;DHT22;1528;52.550;13.408;2023-04-03T07:19:32;5.10;20.30
3037;DHT22;1528;52.550;13.408;2023-04-03T07:22:19;5.10;19.40
3037;DHT22;1528;52.550;13.408;2023-04-03T07:25:05;5.30;19.40
3037;DHT22;1528;52.550;13.408;2023-04-03T07:27:51;5.40;18.70
3037;DHT22;1528;52.550;13.408;2023-04-03T07:30:45;5.70;18.40
3037;DHT22;1528;52.550;13.408;2023-04-03T07:33:32;5.90;16.80
3037;DHT22;1528;52.550;13.408;2023-04-03T07:36:19;5.80;16.60
3037;DHT22;1528;52.550;13.408;2023-04-03T07:39:06;5.90;16.60
3037;DHT22;1528;52.550;13.408;2023-04-03T07:41:52;6.10;16.40
3037;DHT22;1528;52.550;13.408;2023-04-03T07:44:39;5.90;16.80
3037;DHT22;1528;52.550;13.408;2023-04-03T07:47:25;6.00;16.70
3037;DHT22;1528;52.550;13.408;2023-04-03T07:50:11;6.00;16.40
3037;DHT22;1528;52.550;13.408;2023-04-03T07:52:56;6.00;16.40
3037;DHT22;1528;52.550;13.408;2023-04-03T07:55:45;6.00;16.10
3037;DHT22;1528;52.550;13.408;2023-04-03T07:58:31;6.40;15.20
3037;DHT22;1528;52.550;13.408;2023-04-03T08:01:16;6.60;14.40
3037;DHT22;1528;52.550;13.408;2023-04-03T08:04:02;6.50;14.20
3037;DHT22;1528;52.550;13.408;2023-04-03T08:06:47;6.50;14.30
3037;DHT22;1528;52.550;13.408;2023-04-03T08:09:33;6.50;14.50
3037;DHT22;1528;52.550;13.408;2023-04-03T08:12:20;6.50;14.30
3037;DHT22;1528;52.550;13.408;2023-04-03T08:15:07;6.50;14.20
3037;DHT22;1528;52.550;13.408;2023-04-03T08:17:53;6.30;14.70
3037;DHT22;1528;52.550;13.408;2023-04-03T08:20:39;6.50;14.20
3037;DHT22;1528;52.550;13.408;2023-04-03T08:23:25;6.70;12.90
3037;DHT22;1528;52.550;13.408;2023-04-03T08:26:13;6.60;13.80
3037;DHT22;1528;52.550;13.408;2023-04-03T08:29:01;6.70;13.90
3037;DHT22;1528;52.550;13.408;2023-04-03T08:31:46;6.90;12.50
3037;DHT22;1528;52.550;13.408;2023-04-03T08:34:33;7.10;12.20
3037;DHT22;1528;52.550;13.408;2023-04-03T08:37:21;7.10;12.00
3037;DHT22;1528;52.550;13.408;2023-04-03T08:40:12;7.20;11.90
3037;DHT22;1528;52.550;13.408;2023-04-03T08:43:10;7.40;11.80
3037;DHT22;1528;52.550;13.408;2023-04-03T08:46:03;7.40;11.50
3037;DHT22;1528;52.550;13.408;2023-04-03T08:48:51;7.50;10.70
3037;DHT22;1528;52.550;13.408;2023-04-03T08:51:39;7.50;10.50
3037;DHT22;1528;52.550;13.408;2023-04-03T08:54:29;7.70;10.40
3037;DHT22;1528;52.550;13.408;2023-04-03T08:57:16;8.10;13.00
3037;DHT22;1528;52.550;13.408;2023-04-03T09:00:07;8.30;10.70
3037;DHT22;1528;52.550;13.408;2023-04-03T09:03:02;8.40;10.80
3037;DHT22;1528;52.550;13.408;2023-04-03T09:05:50;8.60;9.00
3037;DHT22;1528;52.550;13.408;2023-04-03T09:08:44;8.20;9.50
3037;DHT22;1528;52.550;13.408;2023-04-03T09:11:41;7.90;10.20
3037;DHT22;1528;52.550;13.408;2023-04-03T09:14:34;7.70;9.70
3037;DHT22;1528;52.550;13.408;2023-04-03T09:17:31;7.60;9.00
3037;DHT22;1528;52.550;13.408;2023-04-03T09:20:26;7.40;9.20
3037;DHT22;1528;52.550;13.408;2023-04-03T09:23:22;7.30;8.60
3037;DHT22;1528;52.550;13.408;2023-04-03T09:26:14;7.10;9.20
3037;DHT22;1528;52.550;13.408;2023-04-03T09:29:05;7.20;9.70
3037;DHT22;1528;52.550;13.408;2023-04-03T09:31:56;7.30;9.50
3037;DHT22;1528;52.550;13.408;2023-04-03T09:34:43;7.30;8.90
3037;DHT22;1528;52.550;13.408;2023-04-03T09:37:41;7.40;9.00
3037;DHT22;1528;52.550;13.408;2023-04-03T09:40:31;7.40;9.00
3037;DHT22;1528;52.550;13.408;2023-04-03T09:43:27;7.30;9.20
3037;DHT22;1528;52.550;13.408;2023-04-03T09:46:21;7.20;9.30
3037;DHT22;1528;52.550;13.408;2023-04-03T09:49:11;7.00;9.50
3037;DHT22;1528;52.550;13.408;2023-04-03T09:51:57;6.90;10.10
3037;DHT22;1528;52.550;13.408;2023-04-03T09:54:45;7.20;9.60
3037;DHT22;1528;52.550;13.408;2023-04-03T09:57:33;7.70;9.40
3037;DHT22;1528;52.550;13.408;2023-04-03T10:00:23;8.40;8.80
3037;DHT22;1528;52.550;13.408;2023-04-03T10:03:24;8.70;8.10
3037;DHT22;1528;52.550;13.408;2023-04-03T10:06:22;9.10;7.60
3037;DHT22;1528;52.550;13.408;2023-04-03T10:09:18;9.20;6.90
3037;DHT22;1528;52.550;13.408;2023-04-03T10:12:08;9.00;6.40
3037;DHT22;1528;52.550;13.408;2023-04-03T10:14:55;9.10;6.00
3037;DHT22;1528;52.550;13.408;2023-04-03T10:17:51;9.30;6.60
3037;DHT22;1528;52.550;13.408;2023-04-03T10:20:43;9.30;5.50
3037;DHT22;1528;52.550;13.408;2023-04-03T10:23:35;9.30;5.70
3037;DHT22;1528;52.550;13.408;2023-04-03T10:26:32;9.30;5.90
3037;DHT22;1528;52.550;13.408;2023-04-03T10:29:34;9.40;4.50
3037;DHT22;1528;52.550;13.408;2023-04-03T10:32:31;9.90;4.80
3037;DHT22;1528;52.550;13.408;2023-04-03T10:35:30;10.10;3.50
3037;DHT22;1528;52.550;13.408;2023-04-03T10:38:23;10.20;3.50
3037;DHT22;1528;52.550;13.408;2023-04-03T10:41:20;10.30;3.20
3037;DHT22;1528;52.550;13.408;2023-04-03T10:44:16;10.30;3.00
3037;DHT22;1528;52.550;13.408;2023-04-03T10:47:07;10.10;3.90
3037;DHT22;1528;52.550;13.408;2023-04-03T10:50:20;10.20;3.60
3037;DHT22;1528;52.550;13.408;2023-04-03T10:53:14;10.50;3.40
3037;DHT22;1528;52.550;13.408;2023-04-03T10:56:13;10.50;3.10
3037;DHT22;1528;52.550;13.408;2023-04-03T10:59:13;10.70;3.10
3037;DHT22;1528;52.550;13.408;2023-04-03T11:02:06;10.80;3.50
3037;DHT22;1528;52.550;13.408;2023-04-03T11:04:56;10.40;3.80
3037;DHT22;1528;52.550;13.408;2023-04-03T11:07:47;10.50;3.30
3037;DHT22;1528;52.550;13.408;2023-04-03T11:10:41;10.60;3.10
3037;DHT22;1528;52.550;13.408;2023-04-03T11:13:32;10.40;3.60
3037;DHT22;1528;52.550;13.408;2023-04-03T11:16:23;10.20;4.10
3037;DHT22;1528;52.550;13.408;2023-04-03T11:19:15;10.30;4.60
3037;DHT22;1528;52.550;13.408;2023-04-03T11:22:10;10.10;4.20
3037;DHT22;1528;52.550;13.408;2023-04-03T11:25:04;10.00;3.90
3037;DHT22;1528;52.550;13.408;2023-04-03T11:27:55;10.10;4.70
3037;DHT22;1528;52.550;13.408;2023-04-03T11:30:45;9.80;5.30
3037;DHT22;1528;52.550;13.408;2023-04-03T11:33:44;9.70;5.30
3037;DHT22;1528;52.550;13.408;2023-04-03T11:36:33;10.00;5.00
3037;DHT22;1528;52.550;13.408;2023-04-03T11:39:25;10.00;3.60
3037;DHT22;1528;52.550;13.408;2023-04-03T11:42:17;9.90;4.90
3037;DHT22;1528;52.550;13.408;2023-04-03T11:45:29;9.80;5.10
3037;DHT22;1528;52.550;13.408;2023-04-03T11:48:46;9.90;5.30
3037;DHT22;1528;52.550;13.408;2023-04-03T11:51:51;10.10;4.20
3037;DHT22;1528;52.550;13.408;2023-04-03T11:54:45;10.10;4.80
3037;DHT22;1528;52.550;13.408;2023-04-03T11:58:02;9.80;5.20
3037;DHT22;1528;52.550;13.408;2023-04-03T12:00:51;9.70;5.90
3037;DHT22;1528;52.550;13.408;2023-04-03T12:07:12;9.50;6.40
3037;DHT22;1528;52.550;13.408;2023-04-03T12:13:14;9.50;7.20
3037;DHT22;1528;52.550;13.408;2023-04-03T12:16:01;9.70;6.70
3037;DHT22;1528;52.550;13.408;2023-04-03T12:18:59;9.50;6.60
3037;DHT22;1528;52.550;13.408;2023-04-03T12:22:14;9.40;7.20
3037;DHT22;1528;52.550;13.408;2023-04-03T12:28:25;9.00;6.90
3037;DHT22;1528;52.550;13.408;2023-04-03T12:31:11;9.00;7.10
3037;DHT22;1528;52.550;13.408;2023-04-03T12:34:05;9.10;7.40
3037;DHT22;1528;52.550;13.408;2023-04-03T12:37:02;9.10;7.00
3037;DHT22;1528;52.550;13.408;2023-04-03T12:39:55;9.40;6.90
3037;DHT22;1528;52.550;13.408;2023-04-03T12:43:09;11.40;5.10
3037;DHT22;1528;52.550;13.408;2023-04-03T12:46:00;12.60;1.00
3037;DHT22;1528;52.550;13.408;2023-04-03T12:48:49;12.10;1.00
3037;DHT22;1528;52.550;13.408;2023-04-03T12:51:38;11.60;1.40
3037;DHT22;1528;52.550;13.408;2023-04-03T12:54:29;11.10;2.00
3037;DHT22;1528;52.550;13.408;2023-04-03T12:57:19;10.70;2.70
3037;DHT22;1528;52.550;13.408;2023-04-03T13:00:25;10.70;3.70
3037;DHT22;1528;52.550;13.408;2023-04-03T13:03:22;10.40;3.60
3037;DHT22;1528;52.550;13.408;2023-04-03T13:06:14;10.30;3.60
3037;DHT22;1528;52.550;13.408;2023-04-03T13:09:02;10.10;4.50
3037;DHT22;1528;52.550;13.408;2023-04-03T13:11:50;9.90;5.30
3037;DHT22;1528;52.550;13.408;2023-04-03T13:14:38;9.90;5.70
3037;DHT22;1528;52.550;13.408;2023-04-03T13:17:25;9.60;6.00
3037;DHT22;1528;52.550;13.408;2023-04-03T13:20:14;9.60;6.20
3037;DHT22;1528;52.550;13.408;2023-04-03T13:23:02;9.50;5.70
3037;DHT22;1528;52.550;13.408;2023-04-03T13:25:50;9.40;6.20
3037;DHT22;1528;52.550;13.408;2023-04-03T13:28:37;9.30;6.20
3037;DHT22;1528;52.550;13.408;2023-04-03T13:31:28;9.20;6.70
3037;DHT22;1528;52.550;13.408;2023-04-03T13:34:21;9.30;7.00
3037;DHT22;1528;52.550;13.408;2023-04-03T13:37:20;9.30;6.30
3037;DHT22;1528;52.550;13.408;2023-04-03T13:40:11;9.20;7.00
3037;DHT22;1528;52.550;13.408;2023-04-03T13:43:04;9.20;6.60
3037;DHT22;1528;52.550;13.408;2023-04-03T13:45:57;9.00;6.70
3037;DHT22;1528;52.550;13.408;2023-04-03T13:48:45;8.80;7.20
3037;DHT22;1528;52.550;13.408;2023-04-03T13:51:31;8.70;7.80
3037;DHT22;1528;52.550;13.408;2023-04-03T13:54:21;8.80;7.40
3037;DHT22;1528;52.550;13.408;2023-04-03T13:57:14;8.80;7.90
3037;DHT22;1528;52.550;13.408;2023-04-03T14:00:18;8.60;8.00
3037;DHT22;1528;52.550;13.408;2023-04-03T14:03:16;8.60;7.80
3037;DHT22;1528;52.550;13.408;2023-04-03T14:06:06;8.60;7.80
3037;DHT22;1528;52.550;13.408;2023-04-03T14:08:52;8.70;7.80
3037;DHT22;1528;52.550;13.408;2023-04-03T14:11:39;8.70;8.10
3037;DHT22;1528;52.550;13.408;2023-04-03T14:14:27;8.80;8.60
3037;DHT22;1528;52.550;13.408;2023-04-03T14:17:17;8.90;8.30
3037;DHT22;1528;52.550;13.408;2023-04-03T14:20:03;9.10;8.20
3037;DHT22;1528;52.550;13.408;2023-04-03T14:22:50;9.20;7.40
3037;DHT22;1528;52.550;13.408;2023-04-03T14:25:36;9.40;7.30
3037;DHT22;1528;52.550;13.408;2023-04-03T14:28:22;9.70;7.20
3037;DHT22;1528;52.550;13.408;2023-04-03T14:31:09;9.80;6.50
3037;DHT22;1528;52.550;13.408;2023-04-03T14:33:56;9.80;7.00
3037;DHT22;1528;52.550;13.408;2023-04-03T14:36:42;10.40;6.10
3037;DHT22;1528;52.550;13.408;2023-04-03T14:39:30;10.90;5.10
3037;DHT22;1528;52.550;13.408;2023-04-03T14:42:17;11.00;5.30
3037;DHT22;1528;52.550;13.408;2023-04-03T14:45:05;11.00;5.50
3037;DHT22;1528;52.550;13.408;2023-04-03T14:47:54;10.70;6.10
3037;DHT22;1528;52.550;13.408;2023-04-03T14:50:40;10.30;6.10
3037;DHT22;1528;52.550;13.408;2023-04-03T14:53:25;9.80;7.10
3037;DHT22;1528;52.550;13.408;2023-04-03T14:56:18;9.70;8.40
3037;DHT22;1528;52.550;13.408;2023-04-03T14:59:09;9.40;8.40
3037;DHT22;1528;52.550;13.408;2023-04-03T15:01:56;9.10;8.60
3037;DHT22;1528;52.550;13.408;2023-04-03T15:04:42;9.10;9.40
3037;DHT22;1528;52.550;13.408;2023-04-03T15:07:29;8.80;9.50
3037;DHT22;1528;52.550;13.408;2023-04-03T15:10:19;8.70;9.90
3037;DHT22;1528;52.550;13.408;2023-04-03T15:13:07;8.60;10.30
3037;DHT22;1528;52.550;13.408;2023-04-03T15:15:53;8.30;10.70
3037;DHT22;1528;52.550;13.408;2023-04-03T15:18:39;8.30;11.50
3037;DHT22;1528;52.550;13.408;2023-04-03T15:21:25;8.30;11.30
3037;DHT22;1528;52.550;13.408;2023-04-03T15:24:11;8.30;11.30
3037;DHT22;1528;52.550;13.408;2023-04-03T15:26:57;8.30;11.40
3037;DHT22;1528;52.550;13.408;2023-04-03T15:29:44;8.10;11.40
3037;DHT22;1528;52.550;13.408;2023-04-03T15:32:30;8.10;11.80
3037;DHT22;1528;52.550;13.408;2023-04-03T15:35:15;8.00;11.80
3037;DHT22;1528;52.550;13.408;2023-04-03T15:38:01;8.00;11.80
3037;DHT22;1528;52.550;13.408;2023-04-03T15:40:47;8.00;12.00
3037;DHT22;1528;52.550;13.408;2023-04-03T15:43:32;8.10;11.60
3037;DHT22;1528;52.550;13.408;2023-04-03T15:46:20;8.00;11.90
3037;DHT22;1528;52.550;13.408;2023-04-03T15:49:06;8.10;11.90
3037;DHT22;1528;52.550;13.408;2023-04-03T15:51:52;8.20;11.80
3037;DHT22;1528;52.550;13.408;2023-04-03T15:54:37;8.20;11.60
3037;DHT22;1528;52.550;13.408;2023-04-03T15:57:23;8.30;11.10
3037;DHT22;1528;52.550;13.408;2023-04-03T16:00:11;8.10;11.50
3037;DHT22;1528;52.550;13.408;2023-04-03T16:03:02;7.90;12.00
3037;DHT22;1528;52.550;13.408;2023-04-03T16:05:49;7.90;12.10
3037;DHT22;1528;52.550;13.408;2023-04-03T16:08:35;7.70;12.70
3037;DHT22;1528;52.550;13.408;2023-04-03T16:11:22;7.80;12.70
3037;DHT22;1528;52.550;13.408;2023-04-03T16:14:08;8.50;12.20
3037;DHT22;1528;52.550;13.408;2023-04-03T16:16:53;9.30;10.60
3037;DHT22;1528;52.550;13.408;2023-04-03T16:19:40;9.90;9.60
3037;DHT22;1528;52.550;13.408;2023-04-03T16:22:27;10.00;8.60
3037;DHT22;1528;52.550;13.408;2023-04-03T16:25:14;10.00;8.20
3037;DHT22;1528;52.550;13.408;2023-04-03T16:27:59;10.10;7.60
3037;DHT22;1528;52.550;13.408;2023-04-03T16:30:45;9.70;9.00
3037;DHT22;1528;52.550;13.408;2023-04-03T16:33:32;9.60;8.60
3037;DHT22;1528;52.550;13.408;2023-04-03T16:36:19;9.40;9.60
3037;DHT22;1528;52.550;13.408;2023-04-03T16:39:04;9.10;9.90
3037;DHT22;1528;52.550;13.408;2023-04-03T16:41:50;8.90;10.90
3037;DHT22;1528;52.550;13.408;2023-04-03T16:44:36;8.80;10.50
3037;DHT22;1528;52.550;13.408;2023-04-03T16:47:23;8.60;10.70
3037;DHT22;1528;52.550;13.408;2023-04-03T16:50:10;8.50;10.60
3037;DHT22;1528;52.550;13.408;2023-04-03T16:52:57;8.40;11.00
3037;DHT22;1528;52.550;13.408;2023-04-03T16:55:42;8.20;11.30
3037;DHT22;1528;52.550;13.408;2023-04-03T16:58:28;8.10;11.90
3037;DHT22;1528;52.550;13.408;2023-04-03T17:01:15;8.00;12.30
3037;DHT22;1528;52.550;13.408;2023-04-03T17:04:01;7.90;12.50
3037;DHT22;1528;52.550;13.408;2023-04-03T17:06:47;7.80;12.80
3037;DHT22;1528;52.550;13.408;2023-04-03T17:09:34;7.60;13.00
3037;DHT22;1528;52.550;13.408;2023-04-03T17:12:20;7.60;13.80
3037;DHT22;1528;52.550;13.408;2023-04-03T17:15:07;7.60;13.80
3037;DHT22;1528;52.550;13.408;2023-04-03T17:17:53;7.60;13.80
3037;DHT22;1528;52.550;13.408;2023-04-03T17:20:39;7.70;13.80
3037;DHT22;1528;52.550;13.408;2023-04-03T17:23:25;7.50;14.00
3037;DHT22;1528;52.550;13.408;2023-04-03T17:26:13;7.50;14.10
3037;DHT22;1528;52.550;13.408;2023-04-03T17:28:59;7.40;14.30
3037;DHT22;1528;52.550;13.408;2023-04-03T17:31:44;7.40;14.60
3037;DHT22;1528;52.550;13.408;2023-04-03T17:34:30;7.30;14.70
3037;DHT22;1528;52.550;13.408;2023-04-03T17:37:16;7.20;15.20
3037;DHT22;1528;52.550;13.408;2023-04-03T17:40:02;7.20;14.80
3037;DHT22;1528;52.550;13.408;2023-04-03T17:42:49;7.10;15.40
3037;DHT22;1528;52.550;13.408;2023-04-03T17:45:35;7.20;15.40
3037;DHT22;1528;52.550;13.408;2023-04-03T17:48:21;7.20;15.20
3037;DHT22;1528;52.550;13.408;2023-04-03T17:51:07;6.90;16.30
3037;DHT22;1528;52.550;13.408;2023-04-03T17:53:53;7.10;15.90
3037;DHT22;1528;52.550;13.408;2023-04-03T17:56:39;7.00;15.80
3037;DHT22;1528;52.550;13.408;2023-04-03T17:59:32;7.10;15.90
3037;DHT22;1528;52.550;13.408;2023-04-03T18:02:17;6.90;15.70
3037;DHT22;1528;52.550;13.408;2023-04-03T18:05:03;6.80;15.50
3037;DHT22;1528;52.550;13.408;2023-04-03T18:07:49;6.80;15.70
3037;DHT22;1528;52.550;13.408;2023-04-03T18:10:35;6.80;15.70
3037;DHT22;1528;52.550;13.408;2023-04-03T18:13:21;6.70;16.10
3037;DHT22;1528;52.550;13.408;2023-04-03T18:16:09;6.60;16.10
3037;DHT22;1528;52.550;13.408;2023-04-03T18:18:56;6.60;16.40
3037;DHT22;1528;52.550;13.408;2023-04-03T18:21:41;6.60;16.40
3037;DHT22;1528;52.550;13.408;2023-04-03T18:24:31;6.60;16.40
3037;DHT22;1528;52.550;13.408;2023-04-03T18:27:19;6.70;16.70
3037;DHT22;1528;52.550;13.408;2023-04-03T18:30:08;6.60;16.60
3037;DHT22;1528;52.550;13.408;2023-04-03T18:32:56;6.60;16.90